Time;durP1;ratioP1;P1;durP2;ratioP2;P2;SDS_P1;SDS_P2;PMS_P1;PMS_P2;Temp;Humidity;BMP_temperature;BMP_pressure;BME280_temperature;BME280_humidity;BME280_pressure;Samples;Min_cycle;Max_cycle;Signal;HPM_P1;HPM_P2
2022/05/02 00:00:35;;;;;;;6.60;4.35;;;;;;;13.24;83.69;100767.75;5054878;28;20049;-66
2022/05/02 00:03:03;;;;;;;4.32;3.67;;;;;;;13.26;82.54;100773.78;5054775;28;20483;-66
2022/05/02 00:05:31;;;;;;;5.25;3.63;;;;;;;13.30;81.45;100758.34;5053779;28;20041;-66
2022/05/02 00:07:59;;;;;;;4.63;3.70;;;;;;;13.24;81.92;100759.53;5055028;28;20049;-66
2022/05/02 00:10:27;;;;;;;4.30;3.90;;;;;;;13.16;82.86;100756.28;5054761;28;20506;-66
2022/05/02 00:12:55;;;;;;;4.00;3.53;;;;;;;13.28;81.98;100752.31;5054858;28;20056;-66
2022/05/02 00:15:23;;;;;;;5.18;3.60;;;;;;;13.52;80.88;100754.22;5053684;28;20415;-66
2022/05/02 00:17:57;;;;;;;4.85;3.92;;;;;;;13.49;80.70;100760.34;5054183;28;20056;-66
2022/05/02 00:20:28;;;;;;;5.20;3.80;;;;;;;13.45;80.08;100751.84;5053539;28;20061;-66
2022/05/02 00:22:58;;;;;;;4.65;3.55;;;;;;;13.55;80.03;100754.44;5054127;28;20067;-66
2022/05/02 00:25:27;;;;;;;4.03;3.65;;;;;;;13.41;81.05;100746.06;5053870;28;20052;-66
2022/05/02 00:27:55;;;;;;;4.43;3.83;;;;;;;13.30;81.76;100752.84;5053952;28;20399;-66
2022/05/02 00:30:23;;;;;;;4.50;3.63;;;;;;;13.22;81.87;100750.72;5053722;28;20068;-66
2022/05/02 00:32:51;;;;;;;6.13;4.07;;;;;;;13.41;81.07;100746.06;5054392;28;20041;-66
2022/05/02 00:35:20;;;;;;;4.43;4.00;;;;;;;13.44;81.64;100741.94;5054317;28;20041;-66
2022/05/02 00:37:48;;;;;;;4.05;3.60;;;;;;;13.37;82.17;100747.81;5053133;28;20388;-67
2022/05/02 00:40:18;;;;;;;4.07;3.67;;;;;;;13.31;84.16;100740.72;5053446;28;20052;-67
2022/05/02 00:42:47;;;;;;;4.10;3.70;;;;;;;13.21;83.36;100738.94;5052795;28;20095;-67
2022/05/02 00:45:17;;;;;;;4.22;3.20;;;;;;;13.12;83.38;100747.00;5053289;28;20053;-67
2022/05/02 00:47:54;;;;;;;4.88;3.90;;;;;;;13.09;84.45;100735.78;5052319;28;20045;-66
2022/05/02 00:50:35;;;;;;;4.68;3.65;;;;;;;13.11;85.15;100745.34;5046098;28;20033;-67
2022/05/02 00:53:08;;;;;;;4.18;3.50;;;;;;;13.02;84.87;100741.63;5053218;28;20056;-66
2022/05/02 00:55:37;;;;;;;6.00;4.47;;;;;;;12.94;85.72;100737.59;5053803;28;20045;-67
2022/05/02 00:58:06;;;;;;;5.32;3.78;;;;;;;12.93;86.39;100738.72;5052863;28;20056;-67
2022/05/02 01:00:36;;;;;;;4.80;4.00;;;;;;;12.86;86.43;100733.56;5053105;28;20403;-67
2022/05/02 01:03:06;;;;;;;5.22;4.32;;;;;;;12.81;86.27;100725.38;5052966;28;20045;-67
2022/05/02 01:08:33;;;;;;;7.68;3.55;;;;;;;12.83;86.58;100727.81;5041831;28;20052;-67
2022/05/02 01:11:01;;;;;;;4.35;3.65;;;;;;;12.86;85.55;100728.06;5033724;28;20391;-66
2022/05/02 01:13:40;;;;;;;6.30;4.00;;;;;;;12.83;85.06;100723.16;5033905;28;20049;-67
2022/05/02 01:16:23;;;;;;;4.07;3.55;;;;;;;12.72;87.25;100716.16;5033284;28;20057;-66
2022/05/02 01:18:58;;;;;;;5.95;3.20;;;;;;;12.63;87.10;100722.25;5033453;28;20056;-66
2022/05/02 01:21:29;;;;;;;4.53;3.85;;;;;;;12.70;84.72;100718.38;5033742;28;20046;-67
2022/05/02 01:24:02;;;;;;;4.53;3.85;;;;;;;12.88;83.33;100719.53;5030101;28;20052;-67
2022/05/02 01:26:31;;;;;;;4.05;3.30;;;;;;;12.77;84.21;100716.09;5034154;28;20137;-67
2022/05/02 01:29:00;;;;;;;4.40;3.60;;;;;;;12.70;84.75;100719.19;5033179;28;20064;-67
2022/05/02 01:31:28;;;;;;;5.78;3.72;;;;;;;12.73;84.19;100723.28;5033745;28;20045;-67
2022/05/02 01:33:57;;;;;;;5.97;3.95;;;;;;;12.60;85.32;100719.28;5032917;28;20495;-67
2022/05/02 01:36:24;;;;;;;5.18;3.70;;;;;;;12.52;86.69;100722.66;5032865;28;20052;-67
2022/05/02 01:38:53;;;;;;;5.88;3.85;;;;;;;12.50;85.60;100707.31;5032561;28;20527;-67
2022/05/02 01:41:20;;;;;;;4.43;3.78;;;;;;;12.65;84.36;100721.16;5033050;28;20052;-67
2022/05/02 01:43:48;;;;;;;4.80;3.35;;;;;;;12.71;83.52;100709.03;5031959;28;20503;-67
2022/05/02 01:46:16;;;;;;;4.40;3.58;;;;;;;12.73;82.70;100712.28;5048077;28;20056;-67
2022/05/02 01:48:44;;;;;;;3.50;3.17;;;;;;;12.82;82.35;100709.72;5053007;28;20047;-66
2022/05/02 01:51:12;;;;;;;4.15;3.38;;;;;;;12.75;82.00;100704.56;5052314;28;20045;-66
2022/05/02 01:53:40;;;;;;;3.53;3.10;;;;;;;12.68;82.24;100709.59;5038339;28;20052;-66
2022/05/02 01:56:08;;;;;;;4.18;3.45;;;;;;;12.59;83.02;100696.50;5052728;28;20032;-66
2022/05/02 01:58:36;;;;;;;3.78;3.20;;;;;;;12.52;83.82;100701.53;5050822;28;20077;-66
2022/05/02 02:01:04;;;;;;;3.67;3.35;;;;;;;12.51;84.63;100705.38;5051786;28;20060;-66
2022/05/02 02:03:32;;;;;;;4.25;3.50;;;;;;;12.54;84.24;100704.78;5051748;28;20048;-67
2022/05/02 02:06:00;;;;;;;4.70;3.88;;;;;;;12.63;83.68;100700.28;5051912;28;20049;-66
2022/05/02 02:08:31;;;;;;;4.70;3.70;;;;;;;12.75;83.73;100704.56;5037830;28;20049;-66
2022/05/02 02:11:05;;;;;;;4.22;3.83;;;;;;;12.69;84.40;100705.72;5035219;28;20491;-66
2022/05/02 02:13:35;;;;;;;4.53;4.07;;;;;;;12.77;83.73;100703.16;5038528;28;20064;-66
2022/05/02 02:16:07;;;;;;;4.60;3.70;;;;;;;12.74;84.24;100695.53;5034433;28;20049;-67
2022/05/02 02:18:39;;;;;;;5.05;3.60;;;;;;;12.70;85.33;100696.41;5036879;28;20392;-67
2022/05/02 02:21:11;;;;;;;5.25;4.57;;;;;;;12.61;85.64;100699.78;5034499;28;20049;-66
2022/05/02 02:23:39;;;;;;;6.10;4.13;;;;;;;12.54;87.20;100699.31;5035032;28;20395;-67
2022/05/02 02:26:07;;;;;;;4.65;3.92;;;;;;;12.70;86.25;100697.22;5035334;28;20408;-67
2022/05/02 02:28:37;;;;;;;4.85;4.18;;;;;;;12.65;87.64;100697.25;5035038;28;20043;-67
2022/05/02 02:31:05;;;;;;;6.28;4.15;;;;;;;12.62;87.17;100695.13;5034776;28;20045;-67
2022/05/02 02:33:33;;;;;;;5.78;3.90;;;;;;;12.65;86.68;100694.50;5034973;28;20048;-66
2022/05/02 02:36:01;;;;;;;5.22;4.07;;;;;;;12.61;87.99;100690.75;5030932;28;20036;-66
2022/05/02 02:38:29;;;;;;;5.03;4.18;;;;;;;12.50;88.57;100692.75;5033675;28;20072;-66
2022/05/02 02:40:57;;;;;;;5.72;4.47;;;;;;;12.40;89.15;100698.34;5042641;28;20120;-66
2022/05/02 02:43:25;;;;;;;6.07;4.20;;;;;;;12.20;90.18;100697.44;5034592;28;20066;-67
2022/05/02 02:45:53;;;;;;;6.00;4.38;;;;;;;12.07;91.17;100699.72;5048785;28;20054;-66
2022/05/02 02:48:20;;;;;;;6.00;4.80;;;;;;;11.93;92.27;100696.78;5051696;28;20044;-66
2022/05/02 02:50:49;;;;;;;5.78;4.68;;;;;;;11.83;93.77;100696.84;5051113;28;20052;-66
2022/05/02 02:53:16;;;;;;;8.05;5.00;;;;;;;11.79;94.72;100687.59;5048715;28;20034;-66
2022/05/02 02:55:44;;;;;;;6.90;4.45;;;;;;;11.73;94.58;100695.00;5047617;28;20056;-66
2022/05/02 02:58:12;;;;;;;6.40;4.40;;;;;;;11.66;95.57;100687.13;5050445;28;20045;-66
2022/05/02 03:00:40;;;;;;;7.03;4.55;;;;;;;11.62;96.55;100687.97;5051785;28;20056;-66
2022/05/02 03:03:08;;;;;;;8.32;4.88;;;;;;;11.64;96.56;100683.03;5051195;28;20060;-66
2022/05/02 03:08:23;;;;;;;7.03;4.38;;;;;;;12.01;94.52;100675.34;5051712;28;20487;-66
2022/05/02 03:10:52;;;;;;;5.18;4.10;;;;;;;12.06;93.41;100684.38;5050789;28;20103;-66
2022/05/02 03:13:20;;;;;;;6.07;4.72;;;;;;;12.06;94.80;100678.91;5050985;28;20049;-66
2022/05/02 03:15:48;;;;;;;5.55;4.32;;;;;;;12.03;93.52;100679.44;5051388;28;20041;-66
2022/05/02 03:18:16;;;;;;;6.07;4.28;;;;;;;12.32;92.03;100672.38;5051418;28;20472;-66
2022/05/02 03:20:44;;;;;;;5.22;4.63;;;;;;;12.36;91.11;100666.00;5051550;28;20044;-66
2022/05/02 03:23:12;;;;;;;4.85;4.05;;;;;;;12.44;90.79;100675.53;5050694;28;20057;-66
2022/05/02 03:25:40;;;;;;;5.45;4.35;;;;;;;12.34;92.22;100673.72;5050132;28;20411;-66
2022/05/02 03:28:08;;;;;;;5.70;4.35;;;;;;;12.25;92.11;100672.69;5051446;28;20037;-66
2022/05/02 03:30:36;;;;;;;5.13;4.50;;;;;;;12.24;92.81;100668.31;5033245;28;20057;-66
2022/05/02 03:33:04;;;;;;;6.20;4.07;;;;;;;12.21;92.09;100672.44;5051382;28;20037;-66
2022/05/02 03:35:32;;;;;;;5.38;4.45;;;;;;;12.15;92.05;100676.34;5032505;28;20073;-66
2022/05/02 03:38:00;;;;;;;4.47;3.45;;;;;;;12.13;91.98;100675.00;5049165;28;20389;-66
2022/05/02 03:40:28;;;;;;;4.97;4.15;;;;;;;12.08;92.80;100682.16;5049749;28;20056;-66
2022/05/02 03:42:56;;;;;;;5.72;4.03;;;;;;;11.99;93.16;100683.88;5039690;28;20495;-66
2022/05/02 03:45:24;;;;;;;5.88;4.10;;;;;;;11.99;92.80;100689.34;5047277;28;20045;-66
2022/05/02 03:47:52;;;;;;;4.82;4.15;;;;;;;12.27;90.23;100677.91;5050612;28;20049;-66
2022/05/02 03:50:19;;;;;;;8.15;4.15;;;;;;;12.19;90.94;100674.69;5050857;28;20048;-66
2022/05/02 03:52:53;;;;;;;;;;;;;;;12.05;92.23;100682.75;5043899;28;20046;-66
2022/05/02 03:55:21;;;;;;;4.47;3.17;;;;;;;12.00;93.38;100685.50;5036606;28;19920;-66
2022/05/02 03:57:50;;;;;;;6.57;3.90;;;;;;;11.86;93.12;100679.00;5038439;28;20046;-66
2022/05/02 04:00:18;;;;;;;4.63;4.05;;;;;;;11.78;93.12;100670.31;5042214;28;20060;-66
2022/05/02 04:02:52;;;;;;;5.57;3.83;;;;;;;11.74;93.75;100679.41;5039878;28;20041;-66
2022/05/02 04:05:20;;;;;;;5.80;4.15;;;;;;;11.79;93.59;100671.13;5049342;28;20047;-66
2022/05/02 04:07:48;;;;;;;10.45;4.10;;;;;;;11.93;92.37;100668.56;5040918;28;20037;-66
2022/05/02 04:10:16;;;;;;;6.45;4.22;;;;;;;11.88;92.84;100676.81;5040081;28;20049;-66
2022/05/02 04:12:44;;;;;;;5.53;4.18;;;;;;;11.98;92.68;100676.75;5031330;28;20048;-66
2022/05/02 04:15:12;;;;;;;5.00;4.03;;;;;;;12.00;93.57;100680.00;5039599;28;20050;-66
2022/05/02 04:17:41;;;;;;;6.82;4.15;;;;;;;11.83;93.91;100678.50;5043132;28;20056;-66
2022/05/02 04:20:10;;;;;;;5.32;4.28;;;;;;;11.66;96.05;100681.66;5037230;28;20061;-66
2022/05/02 04:22:43;;;;;;;5.38;3.97;;;;;;;11.51;96.79;100679.81;5046789;28;20049;-66
2022/05/02 04:25:11;;;;;;;8.32;4.57;;;;;;;11.44;95.90;100687.53;5036307;28;20057;-66
2022/05/02 04:27:39;;;;;;;5.15;4.40;;;;;;;11.31;96.40;100674.44;5052412;28;20049;-66
2022/05/02 04:30:07;;;;;;;4.97;4.40;;;;;;;11.29;96.44;100692.00;5041905;28;20051;-66
2022/05/02 04:32:35;;;;;;;4.90;4.38;;;;;;;11.24;96.26;100685.75;5045639;28;20041;-66
2022/05/02 04:35:04;;;;;;;8.15;4.63;;;;;;;11.22;96.59;100688.75;5043015;28;20033;-66
2022/05/02 04:37:32;;;;;;;7.65;4.60;;;;;;;11.23;97.12;100695.88;5044285;28;20051;-66
2022/05/02 04:40:00;;;;;;;5.88;4.20;;;;;;;11.29;96.59;100694.72;5050523;28;20425;-66
2022/05/02 04:42:28;;;;;;;5.95;4.70;;;;;;;11.36;95.87;100693.59;5050355;28;20053;-66
2022/05/02 04:44:57;;;;;;;6.43;4.07;;;;;;;11.63;93.58;100690.41;5057146;28;20067;-66
2022/05/02 04:47:25;;;;;;;7.45;4.55;;;;;;;11.66;93.97;100691.78;5048411;28;20053;-66
2022/05/02 04:49:58;;;;;;;4.88;3.97;;;;;;;11.79;92.34;100691.13;5046608;28;20049;-66
2022/05/02 04:52:26;;;;;;;6.35;4.85;;;;;;;11.77;92.54;100687.88;5045770;28;20049;-66
2022/05/02 04:54:54;;;;;;;6.00;4.40;;;;;;;11.82;92.02;100689.75;5050014;28;20048;-66
2022/05/02 04:57:22;;;;;;;6.53;4.30;;;;;;;11.90;91.23;100693.81;5051570;28;20495;-67
2022/05/02 04:59:50;;;;;;;7.15;4.25;;;;;;;11.89;91.11;100692.16;5049005;28;20041;-67
2022/05/02 05:02:17;;;;;;;4.45;4.03;;;;;;;12.00;90.87;100690.97;5051846;28;20059;-67
2022/05/02 05:04:46;;;;;;;5.57;3.97;;;;;;;12.21;91.11;100697.16;5050073;28;20041;-67
2022/05/02 05:07:17;;;;;;;8.50;4.57;;;;;;;12.25;89.54;100691.91;5050109;28;20069;-66
2022/05/02 05:09:46;;;;;;;4.18;3.65;;;;;;;12.42;88.82;100701.63;5050233;28;20064;-67
2022/05/02 05:12:35;;;;;;;5.15;4.35;;;;;;;12.33;89.47;100704.97;5051226;28;20052;-67
2022/05/02 05:18:29;;;;;;;5.78;3.67;;;;;;;12.68;88.86;100709.59;5046660;28;20033;-68
2022/05/02 05:21:02;;;;;;;4.60;4.10;;;;;;;12.55;89.07;100711.91;5051352;28;20120;-67
2022/05/02 05:24:14;;;;;;;9.82;4.85;;;;;;;12.54;89.79;100707.53;5048202;28;20049;-70
2022/05/02 05:26:54;;;;;;;6.53;5.10;;;;;;;12.65;88.19;100702.75;5053087;28;20506;-69
2022/05/02 05:29:39;;;;;;;5.90;4.30;;;;;;;12.76;87.33;100709.78;5043816;28;20048;-69
2022/05/02 05:32:30;;;;;;;5.47;4.35;;;;;;;12.95;86.74;100717.25;5050731;28;20056;-69
2022/05/02 05:35:05;;;;;;;6.05;4.35;;;;;;;13.15;86.37;100713.44;5051497;28;20049;-69
2022/05/02 05:37:55;;;;;;;6.70;4.88;;;;;;;13.21;86.27;100713.38;5049913;28;20037;-69
2022/05/02 05:40:28;;;;;;;5.97;4.60;;;;;;;13.26;85.54;100710.56;5052416;28;20057;-69
2022/05/02 05:43:23;;;;;;;6.03;4.47;;;;;;;13.49;84.73;100716.34;5051691;28;20049;-69
2022/05/02 05:46:16;;;;;;;7.03;4.50;;;;;;;13.72;83.48;100711.88;5049097;28;20515;-69
2022/05/02 05:49:02;;;;;;;9.15;4.32;;;;;;;14.04;81.52;100715.81;5040067;28;20514;-68
2022/05/02 05:51:36;;;;;;;5.00;3.90;;;;;;;14.04;81.54;100720.47;5052310;28;20045;-69
2022/05/02 05:54:17;;;;;;;6.65;3.95;;;;;;;14.05;80.71;100717.44;5052618;28;20045;-70
2022/05/02 05:57:12;;;;;;;6.95;4.57;;;;;;;14.11;80.58;100721.72;5052148;28;20045;-69
2022/05/02 05:59:51;;;;;;;3.80;3.40;;;;;;;14.27;80.38;100709.66;5053055;28;20048;-69
2022/05/02 06:02:23;;;;;;;6.95;4.85;;;;;;;14.36;79.83;100710.56;5052638;28;20083;-69
2022/05/02 06:04:51;;;;;;;6.53;4.18;;;;;;;14.50;79.00;100714.19;5034993;28;20395;-69
2022/05/02 06:07:21;;;;;;;6.32;4.10;;;;;;;14.48;79.82;100713.66;5052360;28;20168;-69
2022/05/02 06:09:50;;;;;;;6.75;4.10;;;;;;;14.44;80.84;100718.16;5052060;28;20495;-69
2022/05/02 06:12:20;;;;;;;5.57;4.05;;;;;;;14.55;79.98;100717.94;5052635;28;20048;-69
2022/05/02 06:20:30;;;;;;;5.43;4.40;;;;;;;14.70;77.34;100720.41;5052465;28;20049;-69
2022/05/02 06:22:59;;;;;;;4.28;3.88;;;;;;;14.93;77.08;100711.47;5051697;28;20041;-69
2022/05/02 06:25:32;;;;;;;5.63;4.13;;;;;;;15.07;76.70;100725.25;5052261;28;20056;-69
2022/05/02 06:28:02;;;;;;;6.57;4.70;;;;;;;15.05;76.22;100723.63;5051573;28;20049;-69
2022/05/02 06:30:33;;;;;;;7.35;4.70;;;;;;;15.18;76.46;100727.50;5051353;28;20303;-69
2022/05/02 06:33:09;;;;;;;4.85;3.90;;;;;;;15.26;72.92;100728.69;5051987;28;20045;-69
2022/05/02 06:35:54;;;;;;;5.22;4.18;;;;;;;15.49;73.30;100733.50;5051192;28;20491;-69
2022/05/02 06:38:35;;;;;;;5.75;4.93;;;;;;;15.45;73.86;100730.53;5052203;28;20045;-69
2022/05/02 06:41:25;;;;;;;7.10;4.28;;;;;;;15.31;73.75;100730.56;5052260;28;20049;-69
2022/05/02 06:44:13;;;;;;;5.45;4.32;;;;;;;15.35;73.62;100730.75;5051539;28;20048;-69
2022/05/02 06:47:10;;;;;;;7.18;4.38;;;;;;;15.50;73.78;100729.59;5050219;28;20421;-69
2022/05/02 06:49:42;;;;;;;6.78;4.28;;;;;;;15.62;76.68;100737.31;5050406;28;20499;-69
2022/05/02 06:52:11;;;;;;;4.60;4.15;;;;;;;15.70;73.65;100744.88;5052197;28;20557;-68
2022/05/02 06:54:54;;;;;;;7.68;4.78;;;;;;;15.83;72.78;100743.19;5051382;28;20049;-68
2022/05/02 06:57:29;;;;;;;5.63;4.40;;;;;;;15.85;72.38;100744.50;5051968;28;20400;-68
2022/05/02 07:00:03;;;;;;;4.45;4.03;;;;;;;15.95;69.72;100742.69;5051628;28;20049;-68
2022/05/02 07:02:43;;;;;;;7.68;5.07;;;;;;;16.05;70.00;100747.13;5052189;28;20041;-68
2022/05/02 07:05:27;;;;;;;8.85;5.00;;;;;;;15.97;71.80;100749.53;5042869;28;20041;-68
2022/05/02 07:08:02;;;;;;;5.65;4.78;;;;;;;16.04;70.19;100751.03;5051965;28;20605;-68
2022/05/02 07:10:33;;;;;;;7.72;4.80;;;;;;;15.97;69.29;100748.69;5051140;28;20060;-69
2022/05/02 07:13:29;;;;;;;6.35;4.47;;;;;;;16.00;68.74;100742.56;5033770;28;20056;-68
2022/05/02 07:16:18;;;;;;;6.32;4.65;;;;;;;16.17;69.91;100744.63;5050799;28;20056;-68
2022/05/02 07:19:34;;;;;;;6.40;4.85;;;;;;;16.28;66.10;100753.44;5051771;28;20045;-69
2022/05/02 07:22:08;;;;;;;6.82;3.60;;;;;;;16.46;61.71;100759.09;4970740;28;20055;-69
2022/05/02 07:24:38;;;;;;;;;;;;;;;16.30;60.74;100750.38;4971016;28;20058;-69
2022/05/02 07:27:43;;;;;;;3.78;3.40;;;;;;;16.34;60.11;100752.22;5005630;28;20315;-68
2022/05/02 07:30:12;;;;;;;3.15;2.85;;;;;;;16.43;60.57;100751.44;5051731;28;20052;-68
2022/05/02 07:32:40;;;;;;;3.88;3.15;;;;;;;16.41;60.95;100756.47;5033687;28;20053;-68
2022/05/02 07:35:10;;;;;;;5.78;3.25;;;;;;;16.42;60.82;100761.66;5051092;28;20487;-69
2022/05/02 07:37:41;;;;;;;2.83;2.63;;;;;;;16.69;60.49;100761.81;5050846;28;20419;-69
2022/05/02 07:40:14;;;;;;;3.28;2.92;;;;;;;16.85;60.47;100765.81;5050682;28;20049;-69
2022/05/02 07:42:44;;;;;;;6.32;2.95;;;;;;;17.01;60.04;100762.63;5050713;28;20511;-69
2022/05/02 07:45:14;;;;;;;3.88;3.22;;;;;;;17.12;59.46;100764.00;5051030;28;20053;-68
2022/05/02 07:47:47;;;;;;;5.28;3.35;;;;;;;17.36;58.79;100761.94;5050817;28;20410;-69
2022/05/02 07:50:19;;;;;;;3.63;2.97;;;;;;;17.54;56.65;100751.75;5050889;28;20060;-69
2022/05/02 07:52:48;;;;;;;3.05;2.72;;;;;;;17.65;55.48;100758.56;5033965;28;20049;-69
2022/05/02 07:55:18;;;;;;;4.00;2.40;;;;;;;17.66;55.49;100749.16;5050243;28;20491;-69
2022/05/02 07:57:47;;;;;;;2.00;1.90;;;;;;;17.69;54.12;100748.50;5054032;28;20419;-68
2022/05/02 08:00:16;;;;;;;2.28;2.08;;;;;;;17.35;55.21;100761.13;5054311;28;20396;-69
2022/05/02 08:02:44;;;;;;;2.72;2.10;;;;;;;17.48;53.75;100750.25;5054388;28;20045;-69
2022/05/02 08:05:12;;;;;;;2.47;1.90;;;;;;;17.59;53.62;100755.16;5037452;28;20399;-69
2022/05/02 08:07:42;;;;;;;2.00;1.80;;;;;;;17.51;54.12;100760.69;5054663;28;20064;-68
2022/05/02 08:10:22;;;;;;;2.75;2.25;;;;;;;17.75;54.40;100762.16;5054148;28;20064;-69
2022/05/02 08:13:10;;;;;;;1.75;1.52;;;;;;;17.80;54.08;100760.03;5055049;28;20053;-70
2022/05/02 08:15:49;;;;;;;2.58;2.25;;;;;;;17.68;53.36;100762.63;5029819;28;20713;-68
2022/05/02 08:18:38;;;;;;;2.05;1.85;;;;;;;17.79;55.12;100769.50;5054982;28;20404;-70
2022/05/02 08:21:16;;;;;;;2.30;1.98;;;;;;;17.89;54.06;100771.13;5043424;28;20376;-70
2022/05/02 08:27:16;;;;;;;2.10;1.52;;;;;;;17.60;54.70;100769.81;5052673;28;20049;-68
2022/05/02 08:30:03;;;;;;;2.45;2.13;;;;;;;17.57;54.68;100767.69;5054765;28;20561;-68
2022/05/02 08:32:52;;;;;;;2.45;2.00;;;;;;;17.90;56.27;100774.72;5054604;28;20052;-69
2022/05/02 08:35:37;;;;;;;2.90;2.00;;;;;;;18.15;56.39;100775.06;5054529;28;20403;-70
2022/05/02 08:38:21;;;;;;;2.28;2.08;;;;;;;17.95;53.26;100771.78;5042512;28;20051;-70
2022/05/02 08:41:10;;;;;;;2.20;2.00;;;;;;;17.98;53.52;100771.94;5053859;28;20499;-70
2022/05/02 08:44:09;;;;;;;3.08;2.03;;;;;;;17.80;53.17;100770.31;5054273;28;20056;-70
2022/05/02 08:46:49;;;;;;;3.25;2.08;;;;;;;18.18;53.59;100774.41;5054421;28;20040;-70
2022/05/02 08:49:55;;;;;;;2.40;1.80;;;;;;;18.18;51.30;100779.97;5054235;28;20053;-70
2022/05/02 08:53:10;;;;;;;2.03;1.83;;;;;;;18.57;52.73;100783.63;4984223;28;20053;-70
2022/05/02 08:55:44;;;;;;;;;;;;;;;18.78;51.25;100786.50;5038887;28;20048;-69
2022/05/02 08:58:49;;;;;;;2.20;1.60;;;;;;;18.99;50.75;100780.25;5053684;28;19925;-69
2022/05/02 09:02:06;;;;;;;2.33;2.13;;;;;;;18.94;49.84;100783.19;5054280;28;20072;-69
2022/05/02 09:05:00;;;;;;;1.88;1.63;;;;;;;18.95;50.10;100784.81;5022221;28;20416;-69
2022/05/02 09:07:42;;;;;;;2.13;1.90;;;;;;;18.98;50.81;100789.72;5041530;28;20049;-69
2022/05/02 09:10:20;;;;;;;2.72;1.80;;;;;;;19.06;49.81;100777.78;5053965;28;20589;-70
2022/05/02 09:13:27;;;;;;;2.60;2.40;;;;;;;18.77;49.71;100784.88;5036454;28;20510;-69
2022/05/02 09:16:01;;;;;;;3.55;2.10;;;;;;;18.90;50.12;100787.78;5040230;28;20056;-69
2022/05/02 09:18:48;;;;;;;2.67;2.30;;;;;;;18.82;50.45;100783.88;5053172;28;20052;-69
2022/05/02 09:21:41;;;;;;;2.45;2.25;;;;;;;19.07;51.13;100787.72;5049285;28;20480;-69
2022/05/02 09:24:34;;;;;;;2.50;2.30;;;;;;;19.16;50.71;100782.16;5034928;28;20080;-70
2022/05/02 09:27:38;;;;;;;3.30;2.55;;;;;;;19.21;50.01;100778.34;5052623;28;20059;-69
2022/05/02 09:30:43;;;;;;;2.55;2.03;;;;;;;18.90;49.88;100779.44;5053035;28;20060;-69
2022/05/02 09:33:31;;;;;;;;;;;;;;;19.00;48.57;100787.41;5053077;28;20060;-70
2022/05/02 09:36:18;;;;;;;2.35;2.15;;;;;;;18.84;49.92;100778.84;5030426;28;19932;-70
2022/05/02 09:38:51;;;;;;;2.40;2.20;;;;;;;18.74;50.56;100773.66;5052613;28;20060;-70
2022/05/02 09:41:51;;;;;;;3.17;2.30;;;;;;;18.83;50.49;100774.44;5038892;28;20049;-69
2022/05/02 09:50:32;;;;;;;2.72;1.92;;;;;;;19.50;48.58;100768.41;5049986;28;20053;-69
2022/05/02 09:53:21;;;;;;;2.38;2.05;;;;;;;19.40;48.08;100766.03;5050969;28;20052;-70
2022/05/02 09:59:30;;;;;;;2.60;2.40;;;;;;;19.57;46.78;100765.94;5042606;28;20049;-69
2022/05/02 10:02:08;;;;;;;2.35;1.90;;;;;;;19.87;47.19;100762.25;5052533;28;20045;-69
2022/05/02 10:04:36;;;;;;;2.13;1.92;;;;;;;20.19;44.96;100757.09;5052757;28;20049;-70
2022/05/02 10:07:09;;;;;;;2.28;2.08;;;;;;;20.05;46.03;100748.25;5052523;28;20041;-69
2022/05/02 10:09:45;;;;;;;2.22;1.95;;;;;;;20.05;47.09;100756.59;5052726;28;20629;-70
2022/05/02 10:12:26;;;;;;;2.17;1.77;;;;;;;20.16;46.69;100746.69;5033915;28;20045;-69
2022/05/02 10:15:51;;;;;;;2.53;2.28;;;;;;;20.13;46.07;100748.19;5050658;28;20462;-69
2022/05/02 10:18:37;;;;;;;2.53;2.30;;;;;;;20.04;46.22;100743.88;4996641;28;20049;-70
2022/05/02 10:21:42;;;;;;;2.95;2.15;;;;;;;20.02;44.94;100741.41;5005031;28;20555;-70
2022/05/02 10:24:45;;;;;;;2.53;2.33;;;;;;;20.25;45.75;100738.28;5043063;28;20056;-68
2022/05/02 10:27:28;;;;;;;2.63;2.35;;;;;;;20.26;45.78;100743.50;5043238;28;20041;-69
2022/05/02 10:29:56;;;;;;;2.90;2.38;;;;;;;19.99;44.05;100742.13;5048927;28;20045;-74
2022/05/02 10:32:57;;;;;;;2.22;1.83;;;;;;;20.26;45.31;100735.16;5020772;28;20049;-74
2022/05/02 10:35:26;;;;;;;2.67;2.25;;;;;;;20.40;45.13;100739.59;5031522;28;20048;-74
2022/05/02 10:37:57;;;;;;;2.47;2.28;;;;;;;20.16;45.16;100729.19;5050862;28;20578;-73
2022/05/02 10:40:34;;;;;;;2.20;1.98;;;;;;;20.16;44.18;100723.63;5023721;28;20557;-74
2022/05/02 10:43:06;;;;;;;2.15;2.00;;;;;;;20.26;44.59;100723.22;5049734;28;20049;-75
2022/05/02 10:45:36;;;;;;;3.10;2.50;;;;;;;20.43;44.49;100726.97;5051210;28;20052;-75
2022/05/02 10:48:27;;;;;;;2.10;2.00;;;;;;;20.58;43.55;100734.63;5049949;28;20507;-75
2022/05/02 10:51:16;;;;;;;2.63;2.15;;;;;;;20.68;44.61;100728.63;5047920;28;20402;-75
2022/05/02 10:54:04;;;;;;;2.95;2.30;;;;;;;20.67;43.69;100734.53;5048610;28;20053;-74
2022/05/02 10:56:36;;;;;;;2.40;2.20;;;;;;;20.62;45.02;100735.56;5051142;28;20053;-75
2022/05/02 10:59:05;;;;;;;3.63;2.50;;;;;;;20.80;45.87;100741.75;5050627;28;20044;-75
2022/05/02 11:01:52;;;;;;;2.17;1.95;;;;;;;20.47;43.49;100730.69;5033269;28;20052;-75
2022/05/02 11:04:57;;;;;;;3.13;2.50;;;;;;;20.33;44.72;100729.03;5050502;28;20056;-75
2022/05/02 11:07:53;;;;;;;2.70;2.50;;;;;;;20.05;44.67;100724.09;5051455;28;20052;-75
2022/05/02 11:10:27;;;;;;;2.95;2.65;;;;;;;20.13;45.51;100725.13;5049259;28;20399;-75
2022/05/02 11:13:01;;;;;;;2.45;2.25;;;;;;;19.94;45.76;100720.88;5051030;28;20041;-75
2022/05/02 11:15:53;;;;;;;2.50;2.30;;;;;;;19.76;46.64;100723.00;5046881;28;20393;-75
2022/05/02 11:21:33;;;;;;;3.35;2.28;;;;;;;19.67;46.00;100722.25;5046286;28;20041;-75
2022/05/02 11:24:11;;;;;;;3.40;2.35;;;;;;;19.76;46.36;100717.44;5050809;28;20053;-75
2022/05/02 11:26:49;;;;;;;2.40;2.20;;;;;;;19.87;44.50;100717.84;5051450;28;20047;-75
2022/05/02 11:29:38;;;;;;;2.90;2.58;;;;;;;19.83;44.21;100716.88;5051246;28;20045;-75
2022/05/02 11:32:17;;;;;;;3.00;2.13;;;;;;;19.91;44.45;100710.47;5055021;28;20037;-75
2022/05/02 11:35:02;;;;;;;3.22;2.63;;;;;;;20.13;45.43;100703.72;5053570;28;20060;-76
2022/05/02 11:37:49;;;;;;;2.97;2.72;;;;;;;20.29;45.14;100708.66;5053109;28;20099;-75
2022/05/02 11:40:18;;;;;;;2.90;2.55;;;;;;;20.77;44.23;100697.94;5055117;28;20376;-76
2022/05/02 11:42:48;;;;;;;3.05;2.50;;;;;;;21.20;43.47;100692.97;5055008;28;20049;-76
2022/05/02 11:45:17;;;;;;;2.00;1.80;;;;;;;21.54;40.91;100684.41;5051987;28;20041;-75
2022/05/02 11:47:48;;;;;;;2.65;2.35;;;;;;;21.80;42.18;100682.38;5053766;28;20051;-75
2022/05/02 11:50:23;;;;;;;4.47;2.70;;;;;;;21.88;41.11;100681.41;5052031;28;20041;-75
2022/05/02 11:52:57;;;;;;;2.50;2.10;;;;;;;21.88;41.60;100676.66;5053910;28;20064;-75
2022/05/02 11:55:30;;;;;;;3.72;2.55;;;;;;;22.00;41.24;100667.41;5049540;28;20048;-75
2022/05/02 11:58:05;;;;;;;3.47;2.28;;;;;;;22.10;41.00;100676.44;5048314;28;20056;-75
2022/05/02 12:00:36;;;;;;;2.80;2.55;;;;;;;21.82;40.77;100660.53;5048077;28;20040;-74
2022/05/02 12:03:14;;;;;;;3.13;2.50;;;;;;;21.52;42.35;100658.91;5033966;28;20053;-74
2022/05/02 12:05:50;;;;;;;2.63;2.42;;;;;;;21.57;41.90;100663.41;5052879;28;20388;-75
2022/05/02 12:08:32;;;;;;;3.97;2.50;;;;;;;21.29;42.49;100672.53;5054318;28;20045;-75
2022/05/02 12:11:09;;;;;;;3.40;2.70;;;;;;;21.28;41.43;100666.16;5048559;28;20064;-75
2022/05/02 12:13:44;;;;;;;4.32;2.47;;;;;;;21.55;41.32;100660.97;5033108;28;20049;-75
2022/05/02 12:16:14;;;;;;;3.90;2.20;;;;;;;21.62;40.99;100652.81;5051447;28;20045;-75
2022/05/02 12:18:47;;;;;;;2.58;2.38;;;;;;;21.77;39.61;100661.63;5050804;28;20052;-75
2022/05/02 12:21:18;;;;;;;2.53;2.33;;;;;;;21.87;39.72;100660.28;5041992;28;20048;-75
2022/05/02 12:23:47;;;;;;;2.60;2.40;;;;;;;21.78;39.96;100645.69;5039460;28;20045;-75
2022/05/02 12:26:36;;;;;;;2.80;2.50;;;;;;;21.85;39.49;100646.72;5030341;28;20041;-76
2022/05/02 12:29:13;;;;;;;2.42;2.22;;;;;;;22.43;40.46;100655.75;5048144;28;20774;-74
2022/05/02 12:31:43;;;;;;;2.05;1.90;;;;;;;22.69;39.14;100646.09;5028044;28;20509;-75
2022/05/02 12:34:12;;;;;;;3.45;2.33;;;;;;;22.49;39.42;100639.59;5047060;28;20052;-74
2022/05/02 12:36:43;;;;;;;2.60;2.40;;;;;;;22.42;37.54;100643.00;5042147;28;20041;-74